createdAt,value
2018-12-23T00:00:00.196Z,1.50
2018-12-23T00:02:27.606Z,2.20
2018-12-23T00:04:54.983Z,2.53
2018-12-23T00:07:22.366Z,1.63
2018-12-23T00:09:49.902Z,1.50
2018-12-23T00:12:17.270Z,2.20
2018-12-23T00:14:44.738Z,3.00
2018-12-23T00:17:12.118Z,1.40
2018-12-23T00:19:39.601Z,1.40
2018-12-23T00:22:06.982Z,2.03
2018-12-23T00:24:34.358Z,2.20
2018-12-23T00:27:01.734Z,1.13
2018-12-23T00:29:29.102Z,1.70
2018-12-23T00:31:56.489Z,1.30
2018-12-23T00:34:23.871Z,1.43
2018-12-23T00:36:51.471Z,1.33
2018-12-23T00:39:18.846Z,1.40
2018-12-23T00:41:46.233Z,1.60
2018-12-23T00:44:13.622Z,1.30
2018-12-23T00:46:41.010Z,1.83
2018-12-23T00:49:08.405Z,1.90
2018-12-23T00:51:35.786Z,1.87
2018-12-23T00:54:03.170Z,2.00
2018-12-23T00:56:30.591Z,2.03
2018-12-23T00:58:58.030Z,1.35
2018-12-23T01:01:25.422Z,1.13
2018-12-23T01:03:52.827Z,1.50
2018-12-23T01:06:20.318Z,1.27
2018-12-23T01:08:47.694Z,1.80
2018-12-23T01:11:15.098Z,1.83
2018-12-23T01:13:42.480Z,0.93
2018-12-23T01:16:09.872Z,1.47
2018-12-23T01:18:37.259Z,1.80
2018-12-23T01:21:04.690Z,0.97
2018-12-23T01:23:32.080Z,1.83
2018-12-23T01:25:59.446Z,1.50
2018-12-23T01:28:26.830Z,2.10
2018-12-23T01:30:54.202Z,1.70
2018-12-23T01:33:21.578Z,2.07
2018-12-23T01:35:48.960Z,1.40
2018-12-23T01:38:16.345Z,3.50
2018-12-23T01:40:43.716Z,1.10
2018-12-23T01:43:11.183Z,2.90
2018-12-23T01:45:38.657Z,1.27
2018-12-23T01:48:06.062Z,1.83
2018-12-23T01:50:33.434Z,1.43
2018-12-23T01:53:00.819Z,2.27
2018-12-23T01:55:28.194Z,1.83
2018-12-23T01:57:55.578Z,1.87
2018-12-23T02:00:22.956Z,1.83
2018-12-23T02:02:50.344Z,2.47
2018-12-23T02:05:17.738Z,1.30
2018-12-23T02:07:45.127Z,1.53
2018-12-23T02:10:12.503Z,2.57
2018-12-23T02:12:39.915Z,1.23
2018-12-23T02:15:07.307Z,1.37
2018-12-23T02:17:34.682Z,1.30
2018-12-23T02:20:02.070Z,1.83
2018-12-23T02:22:29.538Z,1.60
2018-12-23T02:24:56.919Z,1.20
2018-12-23T02:27:24.339Z,1.57
2018-12-23T02:29:51.718Z,1.70
2018-12-23T02:32:19.118Z,1.80
2018-12-23T02:34:46.491Z,2.00
2018-12-23T02:37:13.892Z,1.27
2018-12-23T02:39:41.264Z,1.93
2018-12-23T02:42:08.679Z,2.00
2018-12-23T02:44:36.129Z,1.90
2018-12-23T02:47:03.531Z,2.10
2018-12-23T02:49:30.900Z,1.70
2018-12-23T02:51:58.275Z,1.23
2018-12-23T02:54:25.688Z,1.15
2018-12-23T02:56:53.069Z,1.82
2018-12-23T02:59:20.486Z,1.73
2018-12-23T03:01:47.862Z,1.20
2018-12-23T03:04:15.242Z,1.57
2018-12-23T03:06:42.647Z,1.25
2018-12-23T03:09:10.019Z,1.40
2018-12-23T03:11:37.413Z,1.80
2018-12-23T03:14:04.809Z,1.77
2018-12-23T03:16:32.229Z,1.43
2018-12-23T03:18:59.701Z,1.70
2018-12-23T03:21:27.167Z,1.35
2018-12-23T03:23:54.568Z,1.43
2018-12-23T03:26:21.958Z,2.00
2018-12-23T03:28:49.350Z,2.23
2018-12-23T03:31:16.811Z,1.90
2018-12-23T03:33:44.311Z,1.60
2018-12-23T03:36:15.351Z,1.60
2018-12-23T03:38:41.159Z,2.17
2018-12-23T03:41:08.562Z,1.27
2018-12-23T03:43:35.952Z,2.13
2018-12-23T03:46:03.423Z,1.20
2018-12-23T03:48:30.806Z,1.35
2018-12-23T03:50:58.182Z,2.10
2018-12-23T03:53:25.566Z,2.20
2018-12-23T03:55:52.950Z,1.57
2018-12-23T03:58:20.354Z,1.80
2018-12-23T04:00:47.747Z,2.00
2018-12-23T04:03:15.206Z,1.70
2018-12-23T04:05:42.692Z,2.10
2018-12-23T04:08:10.095Z,1.70
2018-12-23T04:10:37.475Z,1.23
2018-12-23T04:13:04.850Z,2.30
2018-12-23T04:15:32.230Z,1.10
2018-12-23T04:17:59.606Z,1.50
2018-12-23T04:20:26.990Z,1.73
2018-12-23T04:22:54.485Z,2.05
2018-12-23T04:25:21.955Z,2.07
2018-12-23T04:27:49.410Z,1.30
2018-12-23T04:30:16.811Z,1.67
2018-12-23T04:32:44.207Z,1.77
2018-12-23T04:35:11.605Z,1.85
2018-12-23T04:37:39.006Z,1.30
2018-12-23T04:40:06.388Z,2.10
2018-12-23T04:42:33.769Z,1.47
2018-12-23T04:45:01.246Z,1.50
2018-12-23T04:47:28.619Z,1.23
2018-12-23T04:49:56.007Z,1.83
2018-12-23T04:52:23.387Z,1.97
2018-12-23T04:54:50.787Z,2.07
2018-12-23T04:57:18.162Z,1.63
2018-12-23T04:59:46.134Z,1.93
2018-12-23T05:02:13.503Z,1.90
2018-12-23T05:04:40.887Z,2.10
2018-12-23T05:07:08.271Z,2.13
2018-12-23T05:09:35.642Z,1.80
2018-12-23T05:12:03.022Z,2.03
2018-12-23T05:14:30.411Z,1.57
2018-12-23T05:16:57.816Z,1.80
2018-12-23T05:19:25.227Z,2.35
2018-12-23T05:21:52.601Z,1.30
2018-12-23T05:24:19.980Z,1.80
2018-12-23T05:26:47.398Z,1.40
2018-12-23T05:29:14.774Z,1.37
2018-12-23T05:31:42.158Z,1.73
2018-12-23T05:34:09.532Z,1.47
2018-12-23T05:36:36.925Z,2.22
2018-12-23T05:39:06.142Z,1.80
2018-12-23T05:41:33.530Z,2.40
2018-12-23T05:44:00.900Z,1.63
2018-12-23T05:46:28.282Z,1.57
2018-12-23T05:48:55.670Z,1.70
2018-12-23T05:51:23.074Z,2.33
2018-12-23T05:53:50.443Z,1.43
2018-12-23T05:56:17.830Z,1.93
2018-12-23T05:58:45.211Z,1.90
2018-12-23T06:01:12.674Z,1.77
2018-12-23T06:03:40.062Z,1.60
2018-12-23T06:06:07.442Z,1.92
2018-12-23T06:08:34.818Z,1.47
2018-12-23T06:11:02.214Z,1.40
2018-12-23T06:13:29.638Z,1.70
2018-12-23T06:15:57.043Z,1.90
2018-12-23T06:18:24.422Z,2.70
2018-12-23T06:20:52.129Z,2.12
2018-12-23T06:23:19.538Z,1.25
2018-12-23T06:25:46.923Z,1.92
2018-12-23T06:28:14.298Z,1.50
2018-12-23T06:30:41.674Z,1.63
2018-12-23T06:33:09.063Z,1.73
2018-12-23T06:35:36.459Z,1.60
2018-12-23T06:38:03.895Z,1.63
2018-12-23T06:40:31.282Z,1.40
2018-12-23T06:42:58.659Z,1.75
2018-12-23T06:45:26.050Z,1.42
2018-12-23T06:47:53.430Z,1.45
2018-12-23T06:50:20.814Z,1.30
2018-12-23T06:52:48.182Z,1.53
2018-12-23T06:55:15.558Z,1.10
2018-12-23T06:57:43.020Z,1.40
2018-12-23T07:00:10.443Z,1.70
2018-12-23T07:02:37.823Z,1.00
2018-12-23T07:05:05.239Z,1.47
2018-12-23T07:07:32.625Z,2.27
2018-12-23T07:10:00.002Z,1.98
2018-12-23T07:12:27.420Z,1.15
2018-12-23T07:14:54.794Z,1.27
2018-12-23T07:17:22.175Z,0.95
2018-12-23T07:19:49.555Z,1.82
2018-12-23T07:22:16.982Z,1.55
2018-12-23T07:24:44.378Z,1.60
2018-12-23T07:27:11.762Z,1.37
2018-12-23T07:29:39.150Z,1.65
2018-12-23T07:32:06.555Z,1.50
2018-12-23T07:34:33.939Z,1.60
2018-12-23T07:37:01.319Z,1.90
2018-12-23T07:39:28.707Z,1.35
2018-12-23T07:41:56.099Z,1.45
2018-12-23T07:44:23.483Z,1.30
2018-12-23T07:46:50.886Z,1.65
2018-12-23T07:49:18.276Z,1.40
2018-12-23T07:51:45.654Z,2.33
2018-12-23T07:54:13.134Z,1.60
2018-12-23T07:56:40.628Z,1.85
2018-12-23T07:59:08.082Z,1.72
2018-12-23T08:01:35.478Z,1.92
2018-12-23T08:04:02.869Z,1.72
2018-12-23T08:06:30.255Z,1.80
2018-12-23T08:08:57.724Z,2.65
2018-12-23T08:11:25.098Z,1.30
2018-12-23T08:13:52.474Z,2.50
2018-12-23T08:16:19.888Z,1.67
2018-12-23T08:18:47.283Z,1.45
2018-12-23T08:21:14.671Z,2.10
2018-12-23T08:23:42.082Z,2.05
2018-12-23T08:26:09.454Z,1.92
2018-12-23T08:28:36.858Z,1.57
2018-12-23T08:31:04.249Z,2.02
2018-12-23T08:33:31.627Z,1.60
2018-12-23T08:35:59.010Z,1.80
2018-12-23T08:38:26.389Z,2.02
2018-12-23T08:40:53.771Z,2.17
2018-12-23T08:43:21.179Z,1.40
2018-12-23T08:45:48.566Z,2.35
2018-12-23T08:48:15.947Z,2.10
2018-12-23T08:50:43.338Z,1.55
2018-12-23T08:53:10.719Z,2.05
2018-12-23T08:55:38.106Z,1.52
2018-12-23T08:58:05.492Z,2.35
2018-12-23T09:00:32.978Z,1.90
2018-12-23T09:03:00.367Z,2.10
2018-12-23T09:05:27.752Z,2.67
2018-12-23T09:07:55.131Z,1.65
2018-12-23T09:10:22.515Z,2.53
2018-12-23T09:12:49.902Z,1.75
2018-12-23T09:15:17.283Z,2.00
2018-12-23T09:17:44.661Z,1.60
2018-12-23T09:20:12.934Z,1.90
2018-12-23T09:22:40.302Z,2.60
2018-12-23T09:25:07.707Z,2.37
2018-12-23T09:27:35.082Z,1.93
2018-12-23T09:30:02.518Z,2.10
2018-12-23T09:32:29.906Z,2.70
2018-12-23T09:34:57.306Z,2.33
2018-12-23T09:37:24.678Z,1.70
2018-12-23T09:39:52.065Z,2.40
2018-12-23T09:42:19.550Z,2.15
2018-12-23T09:44:46.934Z,2.95
2018-12-23T09:47:14.342Z,2.00
2018-12-23T09:49:41.730Z,2.00
2018-12-23T09:52:09.116Z,2.10
2018-12-23T09:54:36.585Z,1.40
2018-12-23T09:57:03.978Z,1.60
2018-12-23T09:59:31.386Z,2.60
2018-12-23T10:01:58.757Z,1.57
2018-12-23T10:04:26.155Z,1.57
2018-12-23T10:06:53.542Z,2.70
2018-12-23T10:09:20.911Z,2.23
2018-12-23T10:11:48.321Z,3.33
2018-12-23T10:14:15.802Z,2.20
2018-12-23T10:16:43.183Z,2.80
2018-12-23T10:19:10.554Z,2.10
2018-12-23T10:21:37.942Z,2.00
2018-12-23T10:24:05.335Z,2.13
2018-12-23T10:26:32.719Z,1.57
2018-12-23T10:29:00.099Z,2.10
2018-12-23T10:31:27.483Z,1.90
2018-12-23T10:33:55.784Z,2.40
2018-12-23T10:36:23.174Z,2.00
2018-12-23T10:38:50.554Z,2.70
2018-12-23T10:41:17.937Z,3.60
2018-12-23T10:43:45.317Z,1.97
2018-12-23T10:46:12.802Z,2.87
2018-12-23T10:48:40.191Z,1.93
2018-12-23T10:51:07.571Z,2.17
2018-12-23T10:53:34.942Z,2.67
2018-12-23T10:56:02.342Z,2.00
2018-12-23T10:58:29.731Z,2.17
2018-12-23T11:00:57.147Z,2.63
2018-12-23T11:03:24.532Z,2.50
2018-12-23T11:05:51.912Z,2.60
2018-12-23T11:08:26.696Z,1.70
2018-12-23T11:10:48.665Z,1.37
2018-12-23T11:13:16.063Z,2.37
2018-12-23T11:15:43.441Z,2.80
2018-12-23T11:18:10.842Z,2.30
2018-12-23T11:20:38.223Z,1.77
2018-12-23T11:23:05.626Z,2.07
2018-12-23T11:25:33.023Z,2.23
2018-12-23T11:28:00.399Z,1.67
2018-12-23T11:30:27.784Z,1.70
2018-12-23T11:32:55.185Z,2.30
2018-12-23T11:35:22.646Z,1.93
2018-12-23T11:37:50.028Z,2.37
2018-12-23T11:40:17.453Z,2.13
2018-12-23T11:42:44.842Z,1.80
2018-12-23T11:45:12.211Z,2.13
2018-12-23T11:47:39.587Z,1.40
2018-12-23T11:50:06.987Z,4.43
2018-12-23T11:52:34.380Z,1.90
2018-12-23T11:55:01.936Z,1.10
2018-12-23T11:57:29.399Z,1.67
2018-12-23T11:59:56.791Z,1.57
2018-12-23T12:02:24.246Z,1.37
2018-12-23T12:04:51.623Z,1.70
2018-12-23T12:07:19.006Z,1.43
2018-12-23T12:09:46.439Z,1.33
2018-12-23T12:12:13.811Z,1.33
2018-12-23T12:14:41.291Z,1.73
2018-12-23T12:17:08.670Z,1.27
2018-12-23T12:19:36.052Z,1.37
2018-12-23T12:22:03.451Z,2.00
2018-12-23T12:24:30.831Z,1.33
2018-12-23T12:26:58.211Z,1.30
2018-12-23T12:29:25.601Z,1.50
2018-12-23T12:31:53.083Z,1.80
2018-12-23T12:34:20.471Z,1.60
2018-12-23T12:36:47.869Z,2.70
2018-12-23T12:39:15.243Z,1.70
2018-12-23T12:41:42.627Z,2.00
2018-12-23T12:44:10.011Z,1.87
2018-12-23T12:46:37.410Z,1.80
2018-12-23T12:49:04.819Z,1.90
2018-12-23T12:51:32.206Z,1.90
2018-12-23T12:53:59.577Z,1.87
2018-12-23T12:56:26.962Z,1.50
2018-12-23T12:58:54.349Z,1.23
2018-12-23T13:01:21.728Z,1.20
2018-12-23T13:03:49.106Z,1.40
2018-12-23T13:06:16.514Z,1.93
2018-12-23T13:08:43.882Z,1.63
2018-12-23T13:11:11.259Z,2.40
2018-12-23T13:13:38.647Z,1.97
2018-12-23T13:16:34.021Z,1.60
2018-12-23T13:19:02.367Z,1.67
2018-12-23T13:21:30.714Z,2.23
2018-12-23T13:23:59.069Z,1.60
2018-12-23T13:26:46.801Z,1.60
2018-12-23T13:29:15.173Z,1.57
2018-12-23T13:31:43.528Z,1.80
2018-12-23T13:34:11.887Z,1.92
2018-12-23T13:36:40.235Z,1.50
2018-12-23T13:39:09.074Z,2.50
2018-12-23T13:42:17.398Z,1.70
2018-12-23T13:45:24.479Z,1.40
2018-12-23T13:48:19.465Z,2.00
2018-12-23T13:51:26.558Z,1.75
2018-12-23T13:54:35.015Z,1.62
2018-12-23T13:57:43.430Z,2.60
2018-12-23T14:00:50.517Z,3.90
2018-12-23T14:04:00.035Z,3.10
2018-12-23T14:07:09.113Z,5.08
2018-12-23T14:13:21.198Z,2.55
2018-12-23T14:15:49.557Z,1.42
2018-12-23T14:18:17.920Z,2.35
2018-12-23T14:20:46.274Z,1.50
2018-12-23T14:23:14.639Z,2.40
2018-12-23T14:25:42.986Z,1.87
2018-12-23T14:28:11.345Z,1.42
2018-12-23T14:30:39.698Z,2.10
2018-12-23T14:33:08.063Z,1.50
2018-12-23T14:35:36.434Z,1.10
2018-12-23T14:38:04.798Z,1.47
2018-12-23T14:40:33.156Z,1.70
2018-12-23T14:43:01.522Z,1.75
2018-12-23T14:45:29.897Z,1.80
2018-12-23T14:47:58.264Z,1.80
2018-12-23T14:50:26.615Z,1.50
2018-12-23T14:52:55.009Z,1.30
2018-12-23T14:55:23.365Z,1.50
2018-12-23T14:57:51.725Z,1.10
2018-12-23T15:00:20.080Z,1.40
2018-12-23T15:02:48.442Z,1.30
2018-12-23T15:05:16.797Z,1.87
2018-12-23T15:07:45.165Z,1.25
2018-12-23T15:10:13.509Z,1.60
2018-12-23T15:12:41.874Z,1.37
2018-12-23T15:15:10.232Z,1.15
2018-12-23T15:17:38.597Z,2.05
2018-12-23T15:20:46.996Z,1.32
2018-12-23T15:23:15.355Z,1.85
2018-12-23T15:25:43.705Z,1.55
2018-12-23T15:28:31.419Z,1.47
2018-12-23T15:31:01.485Z,1.75
2018-12-23T15:33:29.850Z,1.42
2018-12-23T15:35:58.194Z,1.20
2018-12-23T15:38:26.551Z,1.20
2018-12-23T15:40:54.913Z,2.10
2018-12-23T15:43:23.268Z,1.12
2018-12-23T15:45:51.619Z,1.92
2018-12-23T15:48:19.970Z,1.47
2018-12-23T15:50:48.313Z,1.72
2018-12-23T15:53:16.676Z,1.85
2018-12-23T15:55:45.026Z,1.10
2018-12-23T15:58:13.386Z,2.17
2018-12-23T16:00:41.734Z,1.85
2018-12-23T16:03:10.098Z,1.75
2018-12-23T16:05:38.444Z,1.35
2018-12-23T16:08:06.805Z,1.67
2018-12-23T16:10:35.158Z,2.20
2018-12-23T16:13:22.864Z,1.50
2018-12-23T16:15:51.213Z,3.10
2018-12-23T16:18:19.675Z,1.70
2018-12-23T16:20:48.005Z,1.98
2018-12-23T16:23:16.359Z,2.10
2018-12-23T16:25:44.705Z,2.42
2018-12-23T16:28:13.062Z,1.50
2018-12-23T16:30:41.412Z,1.67
2018-12-23T16:33:09.777Z,1.25
2018-12-23T16:35:38.118Z,1.47
2018-12-23T16:38:06.477Z,2.08
2018-12-23T16:40:34.833Z,1.75
2018-12-23T16:43:03.189Z,1.72
2018-12-23T16:45:31.538Z,2.02
2018-12-23T16:47:59.910Z,1.67
2018-12-23T16:50:28.263Z,0.93
2018-12-23T16:52:56.611Z,1.10
2018-12-23T16:55:25.070Z,0.95
2018-12-23T16:57:53.422Z,0.80
2018-12-23T17:00:21.782Z,0.60
2018-12-23T17:02:50.118Z,0.90
2018-12-23T17:05:18.473Z,0.80
2018-12-23T17:07:46.817Z,0.50
2018-12-23T17:10:15.164Z,0.60
2018-12-23T17:12:43.512Z,0.60
2018-12-23T17:15:11.862Z,1.00
2018-12-23T17:17:40.206Z,0.60
2018-12-23T17:20:48.607Z,0.90
2018-12-23T17:23:16.958Z,0.63
2018-12-23T17:25:45.308Z,0.70
2018-12-23T17:28:13.646Z,0.80
2018-12-23T17:30:41.994Z,0.50
2018-12-23T17:33:10.336Z,0.70
2018-12-23T17:35:38.704Z,0.53
2018-12-23T17:38:07.052Z,0.50
2018-12-23T17:40:35.415Z,0.67
2018-12-23T17:43:03.758Z,0.60
2018-12-23T17:45:32.104Z,0.87
2018-12-23T17:48:00.444Z,0.70
2018-12-23T17:50:28.794Z,0.80
2018-12-23T17:52:57.204Z,1.47
2018-12-23T17:55:25.954Z,0.70
2018-12-23T17:57:54.294Z,0.70
2018-12-23T18:00:22.649Z,0.80
2018-12-23T18:02:50.993Z,0.60
2018-12-23T18:05:19.341Z,0.70
2018-12-23T18:07:47.682Z,0.73
2018-12-23T18:10:16.026Z,0.87
2018-12-23T18:12:44.371Z,0.50
2018-12-23T18:15:12.719Z,0.63
2018-12-23T18:17:41.067Z,0.60
2018-12-23T18:20:09.418Z,0.40
2018-12-23T18:22:37.761Z,0.47
2018-12-23T18:25:06.180Z,0.50
2018-12-23T18:27:34.519Z,0.40
2018-12-23T18:30:02.870Z,0.70
2018-12-23T18:32:31.214Z,0.50
2018-12-23T18:34:59.564Z,0.70
2018-12-23T18:37:27.908Z,0.50
2018-12-23T18:39:56.250Z,0.90
2018-12-23T18:42:24.598Z,0.50
2018-12-23T18:44:52.935Z,0.50
2018-12-23T18:47:21.285Z,0.47
2018-12-23T18:49:49.625Z,0.50
2018-12-23T18:52:17.980Z,0.40
2018-12-23T18:54:46.318Z,0.60
2018-12-23T18:57:14.664Z,0.60
2018-12-23T18:59:43.003Z,0.60
2018-12-23T19:02:11.360Z,0.40
2018-12-23T19:04:39.699Z,0.70
2018-12-23T19:07:08.050Z,0.60
2018-12-23T19:10:16.476Z,0.70
2018-12-23T19:13:24.880Z,0.60
2018-12-23T19:16:31.957Z,0.40
2018-12-23T19:19:40.341Z,0.50
2018-12-23T19:22:48.748Z,0.50
2018-12-23T19:25:55.824Z,0.50
2018-12-23T19:29:04.296Z,0.60
2018-12-23T19:32:12.698Z,0.47
2018-12-23T19:35:21.148Z,0.50
2018-12-23T19:37:58.157Z,0.47
2018-12-23T19:41:05.235Z,0.77
2018-12-23T19:44:13.639Z,0.50
2018-12-23T19:47:20.721Z,0.43
2018-12-23T19:50:27.787Z,0.40
2018-12-23T19:53:19.773Z,0.40
2018-12-23T19:56:28.252Z,0.83
2018-12-23T19:59:36.699Z,0.60
2018-12-23T20:02:45.151Z,0.83
2018-12-23T20:05:52.243Z,0.50
2018-12-23T20:08:59.306Z,0.50
2018-12-23T20:12:06.383Z,0.40
2018-12-23T20:15:13.459Z,0.50
2018-12-23T20:18:20.612Z,0.40
2018-12-23T20:21:29.301Z,0.40
2018-12-23T20:24:37.709Z,0.40
2018-12-23T20:27:46.137Z,0.70
2018-12-23T20:30:53.214Z,0.40
2018-12-23T20:34:00.347Z,0.50
2018-12-23T20:37:08.742Z,0.30
2018-12-23T20:40:15.823Z,0.40
2018-12-23T20:42:59.256Z,0.43
2018-12-23T20:46:06.330Z,0.37
2018-12-23T20:49:14.808Z,0.40
2018-12-23T20:52:23.251Z,0.40
2018-12-23T20:55:30.326Z,0.40
2018-12-23T20:58:23.582Z,0.60
2018-12-23T21:01:30.651Z,0.43
2018-12-23T21:04:37.727Z,0.50
2018-12-23T21:07:44.851Z,0.50
2018-12-23T21:10:51.930Z,0.40
2018-12-23T21:13:59.031Z,0.50
2018-12-23T21:17:07.475Z,0.50
2018-12-23T21:20:14.554Z,0.50
2018-12-23T21:23:21.691Z,0.50
2018-12-23T21:26:28.761Z,0.40
2018-12-23T21:29:35.863Z,0.43
2018-12-23T21:32:42.955Z,0.40
2018-12-23T21:35:50.192Z,0.40
2018-12-23T21:38:31.400Z,0.30
2018-12-23T21:41:39.849Z,0.50
2018-12-23T21:44:46.917Z,0.40
2018-12-23T21:47:53.989Z,0.50
2018-12-23T21:51:01.070Z,0.50
2018-12-23T21:54:08.177Z,0.50
2018-12-23T21:57:16.589Z,0.47
2018-12-23T22:00:25.060Z,0.40
2018-12-23T22:03:14.453Z,0.50
2018-12-23T22:06:21.534Z,0.40
2018-12-23T22:09:28.604Z,0.40
2018-12-23T22:12:35.762Z,0.40
2018-12-23T22:15:04.118Z,0.40
2018-12-23T22:17:32.482Z,0.50
2018-12-23T22:20:20.189Z,0.50
2018-12-23T22:22:48.550Z,0.40
2018-12-23T22:25:36.280Z,0.63
2018-12-23T22:28:04.628Z,0.40
2018-12-23T22:30:32.978Z,0.50
2018-12-23T22:33:01.328Z,0.50
2018-12-23T22:35:29.675Z,0.40
2018-12-23T22:37:58.023Z,0.40
2018-12-23T22:40:26.376Z,0.40
2018-12-23T22:42:54.726Z,0.40
2018-12-23T22:45:23.067Z,0.37
2018-12-23T22:47:51.416Z,0.40
2018-12-23T22:50:19.766Z,0.30
2018-12-23T22:52:48.187Z,0.40
2018-12-23T22:55:16.937Z,0.40
2018-12-23T22:57:45.261Z,0.40
2018-12-23T23:00:53.656Z,0.40
2018-12-23T23:03:22.007Z,0.30
2018-12-23T23:05:50.437Z,0.30
2018-12-23T23:08:18.784Z,0.30
2018-12-23T23:10:47.131Z,0.40
2018-12-23T23:13:18.704Z,0.60
2018-12-23T23:15:45.537Z,0.30
2018-12-23T23:18:13.887Z,0.40
2018-12-23T23:20:42.243Z,0.40
2018-12-23T23:23:10.659Z,0.40
2018-12-23T23:25:38.999Z,0.60
2018-12-23T23:28:07.362Z,0.40
2018-12-23T23:30:35.701Z,0.40
2018-12-23T23:33:04.045Z,0.43
2018-12-23T23:35:32.708Z,0.30
2018-12-23T23:38:02.072Z,0.40
2018-12-23T23:40:30.390Z,0.50
2018-12-23T23:42:58.738Z,0.40
2018-12-23T23:45:27.082Z,0.30
2018-12-23T23:47:55.747Z,0.50
2018-12-23T23:50:24.184Z,0.40
2018-12-23T23:52:52.547Z,0.40
2018-12-23T23:55:20.882Z,0.40
2018-12-23T23:57:49.248Z,0.40
